sensor_id;sensor_type;location;lat;lon;timestamp;pressure;altitude;pressure_sealevel;temperature;humidity
50356;BME280;36264;51.296;-0.602;2023-07-29T00:00:19;100424.66;;;20.55;100.00
50356;BME280;36264;51.296;-0.602;2023-07-29T00:02:45;100435.69;;;20.49;100.00
50356;BME280;36264;51.296;-0.602;2023-07-29T00:05:11;100426.94;;;20.59;100.00
50356;BME280;36264;51.296;-0.602;2023-07-29T00:07:36;100432.72;;;20.65;100.00
50356;BME280;36264;51.296;-0.602;2023-07-29T00:10:02;100434.75;;;20.72;100.00
50356;BME280;36264;51.296;-0.602;2023-07-29T00:12:28;100431.03;;;20.63;100.00
50356;BME280;36264;51.296;-0.602;2023-07-29T00:14:54;100416.97;;;20.63;100.00
50356;BME280;36264;51.296;-0.602;2023-07-29T00:17:20;100419.63;;;20.63;100.00
50356;BME280;36264;51.296;-0.602;2023-07-29T00:19:46;100417.56;;;20.55;100.00
50356;BME280;36264;51.296;-0.602;2023-07-29T00:22:11;100425.50;;;20.55;100.00
50356;BME280;36264;51.296;-0.602;2023-07-29T00:24:37;100436.03;;;20.55;100.00
50356;BME280;36264;51.296;-0.602;2023-07-29T00:27:02;100431.75;;;20.54;100.00
50356;BME280;36264;51.296;-0.602;2023-07-29T00:29:28;100432.81;;;20.40;100.00
50356;BME280;36264;51.296;-0.602;2023-07-29T00:31:53;100431.59;;;20.22;100.00
50356;BME280;36264;51.296;-0.602;2023-07-29T00:34:18;100431.34;;;20.25;100.00
50356;BME280;36264;51.296;-0.602;2023-07-29T00:36:45;100430.66;;;20.34;100.00
50356;BME280;36264;51.296;-0.602;2023-07-29T00:39:11;100419.38;;;20.32;100.00
50356;BME280;36264;51.296;-0.602;2023-07-29T00:41:36;100420.94;;;20.35;100.00
50356;BME280;36264;51.296;-0.602;2023-07-29T00:44:02;100416.97;;;20.40;100.00
50356;BME280;36264;51.296;-0.602;2023-07-29T00:46:28;100423.09;;;20.41;100.00
50356;BME280;36264;51.296;-0.602;2023-07-29T00:48:54;100413.53;;;20.40;100.00
50356;BME280;36264;51.296;-0.602;2023-07-29T00:51:20;100415.28;;;20.39;100.00
50356;BME280;36264;51.296;-0.602;2023-07-29T00:53:45;100420.09;;;20.34;100.00
50356;BME280;36264;51.296;-0.602;2023-07-29T00:56:11;100411.94;;;20.26;100.00
50356;BME280;36264;51.296;-0.602;2023-07-29T00:58:37;100410.88;;;20.29;100.00
50356;BME280;36264;51.296;-0.602;2023-07-29T01:01:02;100413.13;;;20.22;100.00
50356;BME280;36264;51.296;-0.602;2023-07-29T01:03:27;100408.94;;;20.19;100.00
50356;BME280;36264;51.296;-0.602;2023-07-29T01:06:15;100414.81;;;20.34;100.00
50356;BME280;36264;51.296;-0.602;2023-07-29T01:08:52;100408.44;;;20.14;100.00
50356;BME280;36264;51.296;-0.602;2023-07-29T01:14:05;100409.41;;;20.24;100.00
50356;BME280;36264;51.296;-0.602;2023-07-29T01:16:47;100404.28;;;20.34;100.00
50356;BME280;36264;51.296;-0.602;2023-07-29T01:21:58;100387.09;;;20.17;100.00
50356;BME280;36264;51.296;-0.602;2023-07-29T01:24:23;100390.81;;;20.03;100.00
50356;BME280;36264;51.296;-0.602;2023-07-29T01:26:48;100388.66;;;20.08;100.00
50356;BME280;36264;51.296;-0.602;2023-07-29T01:29:14;100386.50;;;20.02;100.00
50356;BME280;36264;51.296;-0.602;2023-07-29T01:31:43;100383.16;;;20.23;100.00
50356;BME280;36264;51.296;-0.602;2023-07-29T01:34:17;100380.41;;;20.24;100.00
50356;BME280;36264;51.296;-0.602;2023-07-29T01:36:49;100383.41;;;20.20;100.00
50356;BME280;36264;51.296;-0.602;2023-07-29T01:39:16;100380.78;;;20.20;100.00
50356;BME280;36264;51.296;-0.602;2023-07-29T01:41:43;100384.13;;;20.22;100.00
50356;BME280;36264;51.296;-0.602;2023-07-29T01:44:09;100386.75;;;20.11;100.00
50356;BME280;36264;51.296;-0.602;2023-07-29T01:46:36;100375.97;;;20.14;100.00
50356;BME280;36264;51.296;-0.602;2023-07-29T01:49:01;100386.38;;;20.04;100.00
50356;BME280;36264;51.296;-0.602;2023-07-29T01:51:27;100389.38;;;19.99;100.00
50356;BME280;36264;51.296;-0.602;2023-07-29T01:53:52;100381.94;;;19.93;100.00
50356;BME280;36264;51.296;-0.602;2023-07-29T01:56:18;100383.38;;;19.97;100.00
50356;BME280;36264;51.296;-0.602;2023-07-29T01:58:43;100387.09;;;19.95;100.00
50356;BME280;36264;51.296;-0.602;2023-07-29T02:01:08;100397.75;;;19.93;100.00
50356;BME280;36264;51.296;-0.602;2023-07-29T02:03:34;100386.72;;;19.88;100.00
50356;BME280;36264;51.296;-0.602;2023-07-29T02:05:59;100397.75;;;19.93;100.00
50356;BME280;36264;51.296;-0.602;2023-07-29T02:08:25;100395.09;;;19.93;100.00
50356;BME280;36264;51.296;-0.602;2023-07-29T02:10:50;100401.09;;;19.95;100.00
50356;BME280;36264;51.296;-0.602;2023-07-29T02:13:15;100396.44;;;19.99;100.00
50356;BME280;36264;51.296;-0.602;2023-07-29T02:15:41;100388.78;;;19.96;100.00
50356;BME280;36264;51.296;-0.602;2023-07-29T02:18:06;100390.53;;;19.95;100.00
50356;BME280;36264;51.296;-0.602;2023-07-29T02:20:32;100387.78;;;19.97;100.00
50356;BME280;36264;51.296;-0.602;2023-07-29T02:22:57;100386.25;;;19.94;100.00
50356;BME280;36264;51.296;-0.602;2023-07-29T02:25:23;100385.28;;;19.95;100.00
50356;BME280;36264;51.296;-0.602;2023-07-29T02:27:48;100379.66;;;20.00;100.00
50356;BME280;36264;51.296;-0.602;2023-07-29T02:30:13;100381.13;;;20.04;100.00
50356;BME280;36264;51.296;-0.602;2023-07-29T02:32:39;100373.81;;;20.07;100.00
50356;BME280;36264;51.296;-0.602;2023-07-29T02:35:04;100364.00;;;20.09;100.00
50356;BME280;36264;51.296;-0.602;2023-07-29T02:37:30;100363.25;;;20.07;100.00
50356;BME280;36264;51.296;-0.602;2023-07-29T02:39:55;100361.94;;;20.02;100.00
50356;BME280;36264;51.296;-0.602;2023-07-29T02:42:21;100359.78;;;20.07;100.00
50356;BME280;36264;51.296;-0.602;2023-07-29T02:44:46;100358.22;;;20.04;100.00
50356;BME280;36264;51.296;-0.602;2023-07-29T02:47:12;100359.19;;;20.03;100.00
50356;BME280;36264;51.296;-0.602;2023-07-29T02:49:37;100372.22;;;19.94;100.00
50356;BME280;36264;51.296;-0.602;2023-07-29T02:52:03;100365.97;;;19.83;100.00
50356;BME280;36264;51.296;-0.602;2023-07-29T02:54:28;100368.44;;;19.73;100.00
50356;BME280;36264;51.296;-0.602;2023-07-29T02:56:53;100365.28;;;19.81;100.00
50356;BME280;36264;51.296;-0.602;2023-07-29T02:59:19;100358.44;;;19.90;100.00
50356;BME280;36264;51.296;-0.602;2023-07-29T03:01:45;100355.56;;;19.93;100.00
50356;BME280;36264;51.296;-0.602;2023-07-29T03:04:10;100359.91;;;19.94;100.00
50356;BME280;36264;51.296;-0.602;2023-07-29T03:06:38;100358.09;;;19.95;100.00
50356;BME280;36264;51.296;-0.602;2023-07-29T03:09:03;100364.19;;;19.95;100.00
50356;BME280;36264;51.296;-0.602;2023-07-29T03:11:28;100359.19;;;19.92;100.00
50356;BME280;36264;51.296;-0.602;2023-07-29T03:13:54;100363.81;;;19.88;100.00
50356;BME280;36264;51.296;-0.602;2023-07-29T03:16:19;100362.41;;;19.84;100.00
50356;BME280;36264;51.296;-0.602;2023-07-29T03:18:45;100365.75;;;19.86;100.00
50356;BME280;36264;51.296;-0.602;2023-07-29T03:21:10;100360.00;;;19.81;100.00
50356;BME280;36264;51.296;-0.602;2023-07-29T03:23:37;100363.56;;;19.80;100.00
50356;BME280;36264;51.296;-0.602;2023-07-29T03:26:03;100356.03;;;19.87;100.00
50356;BME280;36264;51.296;-0.602;2023-07-29T03:28:37;100362.06;;;19.89;100.00
50356;BME280;36264;51.296;-0.602;2023-07-29T03:31:03;100366.31;;;19.79;100.00
50356;BME280;36264;51.296;-0.602;2023-07-29T03:33:28;100361.16;;;19.77;100.00
50356;BME280;36264;51.296;-0.602;2023-07-29T03:35:53;100363.19;;;19.73;100.00
50356;BME280;36264;51.296;-0.602;2023-07-29T03:38:19;100356.22;;;19.72;100.00
50356;BME280;36264;51.296;-0.602;2023-07-29T03:40:44;100368.44;;;19.73;100.00
50356;BME280;36264;51.296;-0.602;2023-07-29T03:43:10;100370.38;;;19.71;100.00
50356;BME280;36264;51.296;-0.602;2023-07-29T03:45:36;100371.09;;;19.73;100.00
50356;BME280;36264;51.296;-0.602;2023-07-29T03:48:02;100380.69;;;19.75;100.00
50356;BME280;36264;51.296;-0.602;2023-07-29T03:50:28;100369.28;;;19.74;100.00
50356;BME280;36264;51.296;-0.602;2023-07-29T03:52:54;100373.34;;;19.67;100.00
50356;BME280;36264;51.296;-0.602;2023-07-29T03:55:20;100377.75;;;19.66;100.00
50356;BME280;36264;51.296;-0.602;2023-07-29T03:57:46;100387.56;;;19.64;100.00
50356;BME280;36264;51.296;-0.602;2023-07-29T04:00:11;100383.47;;;19.60;100.00
50356;BME280;36264;51.296;-0.602;2023-07-29T04:02:37;100381.72;;;19.61;100.00
50356;BME280;36264;51.296;-0.602;2023-07-29T04:05:03;100380.50;;;19.65;100.00
50356;BME280;36264;51.296;-0.602;2023-07-29T04:07:29;100376.66;;;19.58;100.00
50356;BME280;36264;51.296;-0.602;2023-07-29T04:09:55;100378.06;;;19.50;100.00
50356;BME280;36264;51.296;-0.602;2023-07-29T04:12:20;100379.25;;;19.46;100.00
50356;BME280;36264;51.296;-0.602;2023-07-29T04:14:47;100371.38;;;19.46;100.00
50356;BME280;36264;51.296;-0.602;2023-07-29T04:17:12;100371.38;;;19.46;100.00
50356;BME280;36264;51.296;-0.602;2023-07-29T04:19:37;100363.56;;;19.45;100.00
50356;BME280;36264;51.296;-0.602;2023-07-29T04:22:03;100365.22;;;19.46;100.00
50356;BME280;36264;51.296;-0.602;2023-07-29T04:24:28;100354.09;;;19.42;100.00
50356;BME280;36264;51.296;-0.602;2023-07-29T04:26:56;100372.13;;;19.60;100.00
50356;BME280;36264;51.296;-0.602;2023-07-29T04:29:22;100368.56;;;19.36;100.00
50356;BME280;36264;51.296;-0.602;2023-07-29T04:31:50;100376.97;;;19.42;100.00
50356;BME280;36264;51.296;-0.602;2023-07-29T04:34:17;100377.69;;;19.44;100.00
50356;BME280;36264;51.296;-0.602;2023-07-29T04:36:43;100375.13;;;19.31;100.00
50356;BME280;36264;51.296;-0.602;2023-07-29T04:39:08;100375.84;;;19.33;100.00
50356;BME280;36264;51.296;-0.602;2023-07-29T04:41:34;100375.84;;;19.33;100.00
50356;BME280;36264;51.296;-0.602;2023-07-29T04:43:59;100372.59;;;19.29;100.00
50356;BME280;36264;51.296;-0.602;2023-07-29T04:46:25;100371.31;;;19.35;100.00
50356;BME280;36264;51.296;-0.602;2023-07-29T04:48:50;100370.47;;;19.34;100.00
50356;BME280;36264;51.296;-0.602;2023-07-29T04:51:15;100373.09;;;19.34;100.00
50356;BME280;36264;51.296;-0.602;2023-07-29T04:53:41;100364.25;;;19.35;100.00
50356;BME280;36264;51.296;-0.602;2023-07-29T04:56:06;100369.63;;;19.34;100.00
50356;BME280;36264;51.296;-0.602;2023-07-29T04:58:31;100372.97;;;19.36;100.00
50356;BME280;36264;51.296;-0.602;2023-07-29T05:00:59;100374.41;;;19.29;100.00
50356;BME280;36264;51.296;-0.602;2023-07-29T05:03:25;100367.13;;;19.32;100.00
50356;BME280;36264;51.296;-0.602;2023-07-29T05:05:51;100369.63;;;19.34;100.00
50356;BME280;36264;51.296;-0.602;2023-07-29T05:08:18;100373.84;;;19.36;100.00
50356;BME280;36264;51.296;-0.602;2023-07-29T05:10:44;100381.75;;;19.36;100.00
50356;BME280;36264;51.296;-0.602;2023-07-29T05:13:09;100377.91;;;19.41;100.00
50356;BME280;36264;51.296;-0.602;2023-07-29T05:15:34;100381.50;;;19.40;100.00
50356;BME280;36264;51.296;-0.602;2023-07-29T05:18:00;100387.72;;;19.39;100.00
50356;BME280;36264;51.296;-0.602;2023-07-29T05:20:25;100376.34;;;19.38;100.00
50356;BME280;36264;51.296;-0.602;2023-07-29T05:22:50;100384.13;;;19.40;100.00
50356;BME280;36264;51.296;-0.602;2023-07-29T05:25:16;100386.59;;;19.30;100.00
50356;BME280;36264;51.296;-0.602;2023-07-29T05:27:41;100384.97;;;19.40;100.00
50356;BME280;36264;51.296;-0.602;2023-07-29T05:30:07;100378.28;;;19.47;100.00
50356;BME280;36264;51.296;-0.602;2023-07-29T05:32:33;100388.34;;;19.42;100.00
50356;BME280;36264;51.296;-0.602;2023-07-29T05:34:58;100390.06;;;19.54;100.00
50356;BME280;36264;51.296;-0.602;2023-07-29T05:37:24;100376.22;;;19.64;100.00
50356;BME280;36264;51.296;-0.602;2023-07-29T05:39:49;100374.28;;;19.66;100.00
50356;BME280;36264;51.296;-0.602;2023-07-29T05:42:14;100374.66;;;19.72;100.00
50356;BME280;36264;51.296;-0.602;2023-07-29T05:44:39;100379.22;;;19.70;100.00
50356;BME280;36264;51.296;-0.602;2023-07-29T05:47:05;100375.97;;;19.67;100.00
50356;BME280;36264;51.296;-0.602;2023-07-29T05:49:30;100391.28;;;19.62;100.00
50356;BME280;36264;51.296;-0.602;2023-07-29T05:51:56;100381.38;;;19.65;100.00
50356;BME280;36264;51.296;-0.602;2023-07-29T05:54:21;100389.75;;;19.70;100.00
50356;BME280;36264;51.296;-0.602;2023-07-29T05:56:46;100382.44;;;19.74;100.00
50356;BME280;36264;51.296;-0.602;2023-07-29T05:59:12;100389.22;;;19.78;100.00
50356;BME280;36264;51.296;-0.602;2023-07-29T06:01:37;100387.66;;;19.87;100.00
50356;BME280;36264;51.296;-0.602;2023-07-29T06:04:03;100387.34;;;20.03;100.00
50356;BME280;36264;51.296;-0.602;2023-07-29T06:06:28;100380.53;;;20.12;100.00
50356;BME280;36264;51.296;-0.602;2023-07-29T06:08:54;100385.22;;;20.19;100.00
50356;BME280;36264;51.296;-0.602;2023-07-29T06:11:19;100387.25;;;20.27;100.00
50356;BME280;36264;51.296;-0.602;2023-07-29T06:13:46;100379.69;;;20.45;100.00
50356;BME280;36264;51.296;-0.602;2023-07-29T06:16:12;100379.47;;;20.48;100.00
50356;BME280;36264;51.296;-0.602;2023-07-29T06:18:37;100380.06;;;20.40;100.00
50356;BME280;36264;51.296;-0.602;2023-07-29T06:21:03;100377.19;;;20.43;100.00
50356;BME280;36264;51.296;-0.602;2023-07-29T06:23:32;100378.63;;;20.48;100.00
50356;BME280;36264;51.296;-0.602;2023-07-29T06:25:58;100386.78;;;20.56;100.00
50356;BME280;36264;51.296;-0.602;2023-07-29T06:28:24;100380.75;;;20.54;100.00
50356;BME280;36264;51.296;-0.602;2023-07-29T06:30:49;100373.09;;;20.62;100.00
50356;BME280;36264;51.296;-0.602;2023-07-29T06:33:15;100372.66;;;20.68;100.00
50356;BME280;36264;51.296;-0.602;2023-07-29T06:35:41;100380.16;;;20.73;100.00
50356;BME280;36264;51.296;-0.602;2023-07-29T06:38:06;100379.47;;;20.71;100.00
50356;BME280;36264;51.296;-0.602;2023-07-29T06:40:32;100375.88;;;20.72;100.00
50356;BME280;36264;51.296;-0.602;2023-07-29T06:42:57;100378.06;;;20.67;100.00
50356;BME280;36264;51.296;-0.602;2023-07-29T06:45:22;100375.28;;;20.68;100.00
50356;BME280;36264;51.296;-0.602;2023-07-29T06:47:48;100379.22;;;20.74;100.00
50356;BME280;36264;51.296;-0.602;2023-07-29T06:50:13;100384.38;;;20.53;100.00
50356;BME280;36264;51.296;-0.602;2023-07-29T06:52:38;100388.91;;;20.28;100.00
50356;BME280;36264;51.296;-0.602;2023-07-29T06:55:05;100396.72;;;20.30;100.00
50356;BME280;36264;51.296;-0.602;2023-07-29T06:57:31;100397.06;;;20.36;100.00
50356;BME280;36264;51.296;-0.602;2023-07-29T06:59:56;100395.75;;;20.31;100.00
50356;BME280;36264;51.296;-0.602;2023-07-29T07:02:21;100399.47;;;20.39;100.00
50356;BME280;36264;51.296;-0.602;2023-07-29T07:04:47;100386.28;;;20.39;100.00
50356;BME280;36264;51.296;-0.602;2023-07-29T07:07:12;100405.09;;;20.35;100.00
50356;BME280;36264;51.296;-0.602;2023-07-29T07:09:38;100395.28;;;20.37;100.00
50356;BME280;36264;51.296;-0.602;2023-07-29T07:12:03;100403.78;;;20.40;100.00
50356;BME280;36264;51.296;-0.602;2023-07-29T07:14:29;100398.28;;;20.21;100.00
50356;BME280;36264;51.296;-0.602;2023-07-29T07:16:54;100407.84;;;20.22;100.00
50356;BME280;36264;51.296;-0.602;2023-07-29T07:19:19;100404.16;;;20.24;100.00
50356;BME280;36264;51.296;-0.602;2023-07-29T07:21:45;100408.34;;;20.27;100.00
50356;BME280;36264;51.296;-0.602;2023-07-29T07:24:10;100411.72;;;20.29;100.00
50356;BME280;36264;51.296;-0.602;2023-07-29T07:26:36;100415.16;;;20.18;100.00
50356;BME280;36264;51.296;-0.602;2023-07-29T07:29:01;100411.59;;;20.19;100.00
50356;BME280;36264;51.296;-0.602;2023-07-29T07:31:26;100414.22;;;20.19;100.00
50356;BME280;36264;51.296;-0.602;2023-07-29T07:33:52;100410.38;;;20.23;100.00
50356;BME280;36264;51.296;-0.602;2023-07-29T07:36:17;100410.25;;;20.25;100.00
50356;BME280;36264;51.296;-0.602;2023-07-29T07:38:42;100398.63;;;20.27;100.00
50356;BME280;36264;51.296;-0.602;2023-07-29T07:41:08;100395.88;;;20.40;100.00
50356;BME280;36264;51.296;-0.602;2023-07-29T07:43:33;100407.63;;;20.59;100.00
50356;BME280;36264;51.296;-0.602;2023-07-29T07:46:00;100408.34;;;20.84;100.00
50356;BME280;36264;51.296;-0.602;2023-07-29T07:48:26;100400.78;;;20.90;100.00
50356;BME280;36264;51.296;-0.602;2023-07-29T07:50:52;100401.03;;;20.98;100.00
50356;BME280;36264;51.296;-0.602;2023-07-29T07:53:17;100389.25;;;21.03;100.00
50356;BME280;36264;51.296;-0.602;2023-07-29T07:55:42;100387.75;;;21.21;100.00
50356;BME280;36264;51.296;-0.602;2023-07-29T07:58:08;100387.38;;;21.26;100.00
50356;BME280;36264;51.296;-0.602;2023-07-29T08:00:33;100383.50;;;21.41;100.00
50356;BME280;36264;51.296;-0.602;2023-07-29T08:02:58;100393.78;;;21.44;100.00
50356;BME280;36264;51.296;-0.602;2023-07-29T08:05:24;100386.72;;;21.45;100.00
50356;BME280;36264;51.296;-0.602;2023-07-29T08:07:49;100387.66;;;21.44;100.00
50356;BME280;36264;51.296;-0.602;2023-07-29T08:10:15;100387.47;;;21.35;100.00
50356;BME280;36264;51.296;-0.602;2023-07-29T08:12:40;100395.72;;;21.10;100.00
50356;BME280;36264;51.296;-0.602;2023-07-29T08:15:06;100404.28;;;20.91;100.00
50356;BME280;36264;51.296;-0.602;2023-07-29T08:17:31;100396.03;;;20.84;100.00
50356;BME280;36264;51.296;-0.602;2023-07-29T08:19:56;100404.50;;;20.99;100.00
50356;BME280;36264;51.296;-0.602;2023-07-29T08:22:22;100406.03;;;21.13;100.00
50356;BME280;36264;51.296;-0.602;2023-07-29T08:24:47;100397.25;;;21.12;100.00
50356;BME280;36264;51.296;-0.602;2023-07-29T08:27:13;100411.09;;;21.37;100.00
50356;BME280;36264;51.296;-0.602;2023-07-29T08:29:38;100400.75;;;21.45;100.00
50356;BME280;36264;51.296;-0.602;2023-07-29T08:32:04;100409.91;;;21.41;100.00
50356;BME280;36264;51.296;-0.602;2023-07-29T08:34:29;100403.38;;;21.45;100.00
50356;BME280;36264;51.296;-0.602;2023-07-29T08:36:54;100402.28;;;21.59;100.00
50356;BME280;36264;51.296;-0.602;2023-07-29T08:39:20;100407.44;;;21.61;100.00
50356;BME280;36264;51.296;-0.602;2023-07-29T08:42:01;100400.56;;;21.91;100.00
50356;BME280;36264;51.296;-0.602;2023-07-29T08:44:36;100403.47;;;21.87;100.00
50356;BME280;36264;51.296;-0.602;2023-07-29T08:47:04;100402.94;;;21.94;100.00
50356;BME280;36264;51.296;-0.602;2023-07-29T08:49:31;100395.72;;;21.96;100.00
50356;BME280;36264;51.296;-0.602;2023-07-29T08:51:57;100396.22;;;21.89;100.00
50356;BME280;36264;51.296;-0.602;2023-07-29T08:54:22;100388.13;;;21.60;100.00
50356;BME280;36264;51.296;-0.602;2023-07-29T08:56:48;100386.00;;;21.43;100.00
50356;BME280;36264;51.296;-0.602;2023-07-29T08:59:14;100396.13;;;21.26;100.00
50356;BME280;36264;51.296;-0.602;2023-07-29T09:01:41;100399.34;;;21.30;100.00
50356;BME280;36264;51.296;-0.602;2023-07-29T09:04:07;100399.91;;;21.56;100.00
50356;BME280;36264;51.296;-0.602;2023-07-29T09:06:33;100397.00;;;21.80;100.00
50356;BME280;36264;51.296;-0.602;2023-07-29T09:09:01;100405.34;;;21.97;100.00
50356;BME280;36264;51.296;-0.602;2023-07-29T09:11:27;100400.03;;;21.97;100.00
50356;BME280;36264;51.296;-0.602;2023-07-29T09:13:52;100401.13;;;21.94;100.00
50356;BME280;36264;51.296;-0.602;2023-07-29T09:16:18;100398.13;;;21.78;100.00
50356;BME280;36264;51.296;-0.602;2023-07-29T09:18:47;100394.03;;;21.74;100.00
50356;BME280;36264;51.296;-0.602;2023-07-29T09:21:17;100400.41;;;21.50;100.00
50356;BME280;36264;51.296;-0.602;2023-07-29T09:23:43;100387.97;;;21.29;98.28
50356;BME280;36264;51.296;-0.602;2023-07-29T09:26:09;100398.06;;;21.24;100.00
50356;BME280;36264;51.296;-0.602;2023-07-29T09:28:38;100397.13;;;21.14;98.33
50356;BME280;36264;51.296;-0.602;2023-07-29T09:31:04;100395.25;;;20.93;100.00
50356;BME280;36264;51.296;-0.602;2023-07-29T09:33:33;100403.13;;;21.16;100.00
50356;BME280;36264;51.296;-0.602;2023-07-29T09:36:00;100391.81;;;21.25;100.00
50356;BME280;36264;51.296;-0.602;2023-07-29T09:38:27;100387.22;;;21.39;96.12
50356;BME280;36264;51.296;-0.602;2023-07-29T09:40:55;100384.69;;;21.69;97.34
50356;BME280;36264;51.296;-0.602;2023-07-29T09:43:28;100390.94;;;21.89;96.98
50356;BME280;36264;51.296;-0.602;2023-07-29T09:46:00;100381.44;;;21.87;94.18
50356;BME280;36264;51.296;-0.602;2023-07-29T09:48:26;100389.31;;;21.77;94.65
50356;BME280;36264;51.296;-0.602;2023-07-29T09:50:53;100384.16;;;21.76;92.27
50356;BME280;36264;51.296;-0.602;2023-07-29T09:53:19;100383.50;;;22.04;92.74
50356;BME280;36264;51.296;-0.602;2023-07-29T09:55:48;100377.22;;;22.48;89.28
50356;BME280;36264;51.296;-0.602;2023-07-29T09:58:22;100375.13;;;22.51;85.72
50356;BME280;36264;51.296;-0.602;2023-07-29T10:00:51;100368.00;;;22.52;88.07
50356;BME280;36264;51.296;-0.602;2023-07-29T10:03:17;100374.78;;;22.85;90.31
50356;BME280;36264;51.296;-0.602;2023-07-29T10:05:45;100387.84;;;23.08;87.63
50356;BME280;36264;51.296;-0.602;2023-07-29T10:08:10;100384.28;;;22.88;84.65
50356;BME280;36264;51.296;-0.602;2023-07-29T10:10:36;100388.78;;;23.07;88.70
50356;BME280;36264;51.296;-0.602;2023-07-29T10:13:02;100383.38;;;23.18;84.75
50356;BME280;36264;51.296;-0.602;2023-07-29T10:15:29;100389.53;;;23.28;87.44
50356;BME280;36264;51.296;-0.602;2023-07-29T10:17:56;100383.78;;;23.23;87.31
50356;BME280;36264;51.296;-0.602;2023-07-29T10:20:21;100384.66;;;23.33;86.76
50356;BME280;36264;51.296;-0.602;2023-07-29T10:22:47;100373.91;;;23.35;86.01
50356;BME280;36264;51.296;-0.602;2023-07-29T10:27:51;100367.31;;;23.88;82.76
50356;BME280;36264;51.296;-0.602;2023-07-29T10:30:17;100375.38;;;24.06;83.94
50356;BME280;36264;51.296;-0.602;2023-07-29T10:32:44;100371.50;;;24.28;82.45
50356;BME280;36264;51.296;-0.602;2023-07-29T10:35:14;100354.84;;;24.36;78.47
50356;BME280;36264;51.296;-0.602;2023-07-29T10:37:40;100359.69;;;24.13;76.18
50356;BME280;36264;51.296;-0.602;2023-07-29T10:40:08;100362.47;;;24.21;80.15
50356;BME280;36264;51.296;-0.602;2023-07-29T10:42:34;100382.31;;;24.07;80.73
50356;BME280;36264;51.296;-0.602;2023-07-29T10:45:00;100380.72;;;23.67;79.16
50356;BME280;36264;51.296;-0.602;2023-07-29T10:47:41;100390.34;;;23.09;82.72
50356;BME280;36264;51.296;-0.602;2023-07-29T10:50:17;100412.41;;;21.75;96.69
50356;BME280;36264;51.296;-0.602;2023-07-29T10:52:42;100426.22;;;20.91;100.00
50356;BME280;36264;51.296;-0.602;2023-07-29T10:55:27;100436.31;;;20.86;100.00
50356;BME280;36264;51.296;-0.602;2023-07-29T10:58:08;100449.16;;;20.91;100.00
50356;BME280;36264;51.296;-0.602;2023-07-29T11:00:33;100438.09;;;20.52;100.00
50356;BME280;36264;51.296;-0.602;2023-07-29T11:03:01;100450.25;;;20.66;100.00
50356;BME280;36264;51.296;-0.602;2023-07-29T11:05:27;100455.28;;;20.80;100.00
50356;BME280;36264;51.296;-0.602;2023-07-29T11:08:19;100438.97;;;21.30;100.00
50356;BME280;36264;51.296;-0.602;2023-07-29T11:10:57;100446.25;;;21.60;100.00
50356;BME280;36264;51.296;-0.602;2023-07-29T11:13:23;100440.22;;;21.58;100.00
50356;BME280;36264;51.296;-0.602;2023-07-29T11:15:51;100433.50;;;21.86;100.00
50356;BME280;36264;51.296;-0.602;2023-07-29T11:18:20;100437.03;;;22.18;100.00
50356;BME280;36264;51.296;-0.602;2023-07-29T11:20:46;100436.41;;;22.25;100.00
50356;BME280;36264;51.296;-0.602;2023-07-29T11:23:11;100430.53;;;22.43;100.00
50356;BME280;36264;51.296;-0.602;2023-07-29T11:25:38;100437.19;;;22.68;100.00
50356;BME280;36264;51.296;-0.602;2023-07-29T11:28:04;100434.66;;;22.67;100.00
50356;BME280;36264;51.296;-0.602;2023-07-29T11:30:29;100417.00;;;22.36;100.00
50356;BME280;36264;51.296;-0.602;2023-07-29T11:32:57;100416.66;;;22.30;97.96
50356;BME280;36264;51.296;-0.602;2023-07-29T11:35:23;100411.69;;;22.15;92.75
50356;BME280;36264;51.296;-0.602;2023-07-29T11:37:50;100425.38;;;22.41;90.51
50356;BME280;36264;51.296;-0.602;2023-07-29T11:40:17;100402.84;;;22.57;87.98
50356;BME280;36264;51.296;-0.602;2023-07-29T11:42:43;100403.50;;;22.90;91.96
50356;BME280;36264;51.296;-0.602;2023-07-29T11:45:09;100409.19;;;23.26;93.63
50356;BME280;36264;51.296;-0.602;2023-07-29T11:47:36;100415.75;;;23.41;91.18
50356;BME280;36264;51.296;-0.602;2023-07-29T11:50:06;100393.91;;;22.98;79.43
50356;BME280;36264;51.296;-0.602;2023-07-29T11:52:35;100396.88;;;22.65;85.90
50356;BME280;36264;51.296;-0.602;2023-07-29T11:55:01;100409.22;;;22.45;87.18
50356;BME280;36264;51.296;-0.602;2023-07-29T11:57:28;100426.03;;;22.13;90.51
50356;BME280;36264;51.296;-0.602;2023-07-29T11:59:54;100430.91;;;21.75;96.86
50356;BME280;36264;51.296;-0.602;2023-07-29T12:02:20;100439.66;;;21.43;98.11
50356;BME280;36264;51.296;-0.602;2023-07-29T12:04:48;100436.25;;;21.20;100.00
50356;BME280;36264;51.296;-0.602;2023-07-29T12:07:14;100451.84;;;21.23;100.00
50356;BME280;36264;51.296;-0.602;2023-07-29T12:09:41;100461.63;;;21.44;100.00
50356;BME280;36264;51.296;-0.602;2023-07-29T12:12:07;100442.75;;;21.60;100.00
50356;BME280;36264;51.296;-0.602;2023-07-29T12:14:33;100449.63;;;21.83;100.00
50356;BME280;36264;51.296;-0.602;2023-07-29T12:17:03;100430.97;;;22.06;98.01
50356;BME280;36264;51.296;-0.602;2023-07-29T12:19:33;100442.78;;;22.23;100.00
50356;BME280;36264;51.296;-0.602;2023-07-29T12:22:00;100437.09;;;22.28;100.00
50356;BME280;36264;51.296;-0.602;2023-07-29T12:24:25;100414.63;;;22.22;90.73
50356;BME280;36264;51.296;-0.602;2023-07-29T12:26:51;100403.66;;;21.96;83.03
50356;BME280;36264;51.296;-0.602;2023-07-29T12:29:18;100420.00;;;22.11;83.86
50356;BME280;36264;51.296;-0.602;2023-07-29T12:31:48;100413.56;;;22.03;82.23
50356;BME280;36264;51.296;-0.602;2023-07-29T12:34:20;100409.69;;;22.59;82.12